createdAt,value
2018-07-25T00:00:50.079Z,83.3
2018-07-25T00:02:50.328Z,83.3
2018-07-25T00:04:49.944Z,84.3
2018-07-25T00:06:50.351Z,84.7
2018-07-25T00:08:50.693Z,84.7
2018-07-25T00:10:49.960Z,85.3
2018-07-25T00:12:50.469Z,86.1
2018-07-25T00:14:50.705Z,86.2
2018-07-25T00:16:50.134Z,84.5
2018-07-25T00:18:50.268Z,83.0
2018-07-25T00:20:50.539Z,84.3
2018-07-25T00:22:50.698Z,84.8
2018-07-25T00:24:50.944Z,84.6
2018-07-25T00:26:50.554Z,85.0
2018-07-25T00:28:50.768Z,84.3
2018-07-25T00:30:49.949Z,85.6
2018-07-25T00:32:50.264Z,85.5
2018-07-25T00:34:50.911Z,85.0
2018-07-25T00:36:50.209Z,86.0
2018-07-25T00:38:50.409Z,84.8
2018-07-25T00:40:50.716Z,84.8
2018-07-25T00:42:50.918Z,84.5
2018-07-25T00:44:50.124Z,85.0
2018-07-25T00:46:50.642Z,85.7
2018-07-25T00:48:50.841Z,84.6
2018-07-25T00:50:50.007Z,85.1
2018-07-25T00:52:50.322Z,85.6
2018-07-25T00:54:50.485Z,85.6
2018-07-25T00:56:50.121Z,84.0
2018-07-25T00:58:50.448Z,84.1
2018-07-25T01:00:50.679Z,83.8
2018-07-25T01:02:50.859Z,84.4
2018-07-25T01:04:50.699Z,84.5
2018-07-25T01:06:50.181Z,84.2
2018-07-25T01:08:50.512Z,84.3
2018-07-25T01:10:50.719Z,83.8
2018-07-25T01:12:50.049Z,84.6
2018-07-25T01:14:50.235Z,84.9
2018-07-25T01:16:50.671Z,85.4
2018-07-25T01:18:50.020Z,86.5
2018-07-25T01:20:50.146Z,86.8
2018-07-25T01:22:50.331Z,88.0
2018-07-25T01:24:50.536Z,87.8
2018-07-25T01:26:50.401Z,88.1
2018-07-25T01:28:50.726Z,87.9
2018-07-25T01:30:49.958Z,89.0
2018-07-25T01:32:50.202Z,88.7
2018-07-25T01:34:50.659Z,88.4
2018-07-25T01:36:50.235Z,88.6
2018-07-25T01:38:50.586Z,89.1
2018-07-25T01:40:50.854Z,89.1
2018-07-25T01:42:50.088Z,89.7
2018-07-25T01:44:50.337Z,90.4
2018-07-25T01:46:50.855Z,89.8
2018-07-25T01:48:50.090Z,90.4
2018-07-25T01:50:50.298Z,90.4
2018-07-25T01:52:50.519Z,90.9
2018-07-25T01:54:50.910Z,90.5
2018-07-25T01:56:50.486Z,90.7
2018-07-25T01:58:50.668Z,91.9
2018-07-25T02:00:50.811Z,92.0
2018-07-25T02:02:50.015Z,91.8
2018-07-25T02:04:50.490Z,91.7
2018-07-25T02:06:50.010Z,91.8
2018-07-25T02:08:50.301Z,91.3
2018-07-25T02:10:50.551Z,91.8
2018-07-25T02:12:50.774Z,92.3
2018-07-25T02:14:49.969Z,91.7
2018-07-25T02:16:50.611Z,91.7
2018-07-25T02:18:50.866Z,92.5
2018-07-25T02:20:50.080Z,93.2
2018-07-25T02:22:50.200Z,92.9
2018-07-25T02:24:50.423Z,93.7
2018-07-25T02:26:50.857Z,94.1
2018-07-25T02:28:50.300Z,94.7
2018-07-25T02:30:50.532Z,94.7
2018-07-25T02:32:50.773Z,94.2
2018-07-25T02:34:50.443Z,94.5
2018-07-25T02:36:49.987Z,94.6
2018-07-25T02:38:50.210Z,94.4
2018-07-25T02:40:50.398Z,94.7
2018-07-25T02:42:50.695Z,94.3
2018-07-25T02:44:50.105Z,94.1
2018-07-25T02:46:50.770Z,94.4
2018-07-25T02:48:49.946Z,94.6
2018-07-25T02:50:50.244Z,94.4
2018-07-25T02:52:50.495Z,95.3
2018-07-25T02:54:50.696Z,94.8
2018-07-25T02:56:50.765Z,94.7
2018-07-25T02:58:50.010Z,94.9
2018-07-25T03:00:50.183Z,95.3
2018-07-25T03:02:50.568Z,94.6
2018-07-25T03:04:50.304Z,94.6
2018-07-25T03:06:50.805Z,95.3
2018-07-25T03:08:51.242Z,95.0
2018-07-25T03:10:50.552Z,95.3
2018-07-25T03:12:50.809Z,95.9
2018-07-25T03:14:50.115Z,95.6
2018-07-25T03:16:51.491Z,95.0
2018-07-25T03:18:50.786Z,95.0
2018-07-25T03:20:50.028Z,94.9
2018-07-25T03:22:50.377Z,95.4
2018-07-25T03:24:50.600Z,95.4
2018-07-25T03:26:50.234Z,96.1
2018-07-25T03:28:50.549Z,96.6
2018-07-25T03:30:50.893Z,96.6
2018-07-25T03:32:49.965Z,95.5
2018-07-25T03:34:50.780Z,95.8
2018-07-25T03:36:50.275Z,95.7
2018-07-25T03:38:50.439Z,96.4
2018-07-25T03:40:50.634Z,96.5
2018-07-25T03:42:50.886Z,95.8
2018-07-25T03:44:50.068Z,95.7
2018-07-25T03:46:50.443Z,96.4
2018-07-25T03:48:50.779Z,96.2
2018-07-25T03:50:50.137Z,95.2
2018-07-25T03:52:50.386Z,94.7
2018-07-25T03:54:50.622Z,94.4
2018-07-25T03:56:50.228Z,94.5
2018-07-25T03:58:50.377Z,94.5
2018-07-25T04:00:50.560Z,95.0
2018-07-25T04:02:50.825Z,94.3
2018-07-25T04:04:50.372Z,94.6
2018-07-25T04:06:50.775Z,94.2
2018-07-25T04:08:50.094Z,94.1
2018-07-25T04:10:50.318Z,94.3
2018-07-25T04:12:50.637Z,94.2
2018-07-25T04:14:50.874Z,94.1
2018-07-25T04:16:50.389Z,93.8
2018-07-25T04:18:50.611Z,94.3
2018-07-25T04:20:49.978Z,94.1
2018-07-25T04:22:50.231Z,94.4
2018-07-25T04:24:50.908Z,94.2
2018-07-25T04:26:50.363Z,93.0
2018-07-25T04:28:50.598Z,92.9
2018-07-25T04:30:50.759Z,92.7
2018-07-25T04:32:49.934Z,92.6
2018-07-25T04:34:51.490Z,93.6
2018-07-25T04:36:49.991Z,92.3
2018-07-25T04:38:50.217Z,91.1
2018-07-25T04:40:50.387Z,90.2
2018-07-25T04:42:50.914Z,89.2
2018-07-25T04:44:50.090Z,90.4
2018-07-25T04:46:50.727Z,88.7
2018-07-25T04:48:50.929Z,86.9
2018-07-25T04:50:50.270Z,86.7
2018-07-25T04:52:50.540Z,86.3
2018-07-25T04:54:50.752Z,84.3
2018-07-25T04:56:50.269Z,84.1
2018-07-25T04:58:50.444Z,84.7
2018-07-25T05:00:50.855Z,84.6
2018-07-25T05:02:50.121Z,84.7
2018-07-25T05:04:50.762Z,84.0
2018-07-25T05:06:50.237Z,83.0
2018-07-25T05:08:50.496Z,82.8
2018-07-25T05:10:50.756Z,82.8
2018-07-25T05:12:50.044Z,82.3
2018-07-25T05:14:50.277Z,82.5
2018-07-25T05:16:50.725Z,81.8
2018-07-25T05:18:49.995Z,82.2
2018-07-25T05:20:50.158Z,80.9
2018-07-25T05:22:50.448Z,80.6
2018-07-25T05:24:50.676Z,80.8
2018-07-25T05:26:50.267Z,80.4
2018-07-25T05:28:50.514Z,79.7
2018-07-25T05:30:50.759Z,78.5
2018-07-25T05:32:50.937Z,78.1
2018-07-25T05:34:50.678Z,76.5
2018-07-25T05:36:50.851Z,75.0
2018-07-25T05:38:50.095Z,75.2
2018-07-25T05:40:50.340Z,75.2
2018-07-25T05:42:50.592Z,74.5
2018-07-25T05:44:50.847Z,74.6
2018-07-25T05:46:50.204Z,73.6
2018-07-25T05:48:50.562Z,73.7
2018-07-25T05:50:50.827Z,73.8
2018-07-25T05:52:50.901Z,71.9
2018-07-25T05:54:50.228Z,70.8
2018-07-25T05:56:51.483Z,69.7
2018-07-25T05:58:50.732Z,68.6
2018-07-25T06:00:50.315Z,67.2
2018-07-25T06:02:51.260Z,66.3
2018-07-25T06:04:50.964Z,65.7
2018-07-25T06:06:50.552Z,64.9
2018-07-25T06:08:50.816Z,65.6
2018-07-25T06:10:50.948Z,65.4
2018-07-25T06:12:50.898Z,65.5
2018-07-25T06:14:50.297Z,65.2
2018-07-25T06:16:50.797Z,65.8
2018-07-25T06:18:49.967Z,67.7
2018-07-25T06:20:50.393Z,65.7
2018-07-25T06:22:50.831Z,65.4
2018-07-25T06:24:50.967Z,63.5
2018-07-25T06:26:50.498Z,63.9
2018-07-25T06:28:50.727Z,64.6
2018-07-25T06:30:50.859Z,65.1
2018-07-25T06:32:50.007Z,65.3
2018-07-25T06:34:51.363Z,66.6
2018-07-25T06:36:50.813Z,65.7
2018-07-25T06:38:49.999Z,65.4
2018-07-25T06:40:50.243Z,65.3
2018-07-25T06:42:50.427Z,64.8
2018-07-25T06:44:50.794Z,64.9
2018-07-25T06:46:50.335Z,63.6
2018-07-25T06:48:50.453Z,64.2
2018-07-25T06:50:51.263Z,63.2
2018-07-25T06:52:50.559Z,62.9
2018-07-25T06:54:50.801Z,63
2018-07-25T06:56:50.144Z,63.0
2018-07-25T06:58:50.366Z,62.4
2018-07-25T07:00:50.579Z,62.3
2018-07-25T07:02:50.732Z,61.1
2018-07-25T07:04:50.451Z,61
2018-07-25T07:06:50.288Z,61
2018-07-25T07:08:50.494Z,61
2018-07-25T07:10:50.748Z,61
2018-07-25T07:12:50.008Z,61
2018-07-25T07:14:50.201Z,61
2018-07-25T07:16:50.631Z,61
2018-07-25T07:18:50.861Z,61
2018-07-25T07:20:49.957Z,61
2018-07-25T07:22:50.166Z,61
2018-07-25T07:24:50.550Z,61
2018-07-25T07:26:49.955Z,60
2018-07-25T07:28:50.144Z,60
2018-07-25T07:30:50.575Z,60
2018-07-25T07:32:50.729Z,60
2018-07-25T07:34:50.388Z,60
2018-07-25T07:36:50.858Z,59
2018-07-25T07:38:50.233Z,59
2018-07-25T07:40:50.427Z,59
2018-07-25T07:42:50.610Z,59
2018-07-25T07:44:50.835Z,59
2018-07-25T07:46:50.181Z,59
2018-07-25T07:48:50.344Z,59
2018-07-25T07:50:50.942Z,58
2018-07-25T07:52:50.222Z,58
2018-07-25T07:54:50.412Z,58
2018-07-25T07:56:50.850Z,57
2018-07-25T07:58:50.185Z,57
2018-07-25T08:00:50.349Z,57
2018-07-25T08:02:50.600Z,56
2018-07-25T08:04:50.471Z,54
2018-07-25T08:06:49.984Z,56
2018-07-25T08:08:50.325Z,56
2018-07-25T08:10:50.746Z,55
2018-07-25T08:12:50.410Z,55
2018-07-25T08:14:50.028Z,54
2018-07-25T08:16:50.873Z,55
2018-07-25T08:18:50.321Z,55
2018-07-25T08:20:50.796Z,54
2018-07-25T08:22:50.261Z,54
2018-07-25T08:24:50.444Z,55
2018-07-25T08:26:50.218Z,55
2018-07-25T08:28:50.431Z,55
2018-07-25T08:30:50.726Z,53
2018-07-25T08:32:49.979Z,52
2018-07-25T08:34:51.039Z,52
2018-07-25T08:36:50.463Z,52
2018-07-25T08:38:50.664Z,52
2018-07-25T08:40:50.855Z,52
2018-07-25T08:42:50.009Z,51
2018-07-25T08:44:50.312Z,51
2018-07-25T08:46:51.229Z,51
2018-07-25T08:48:50.414Z,50
2018-07-25T08:50:50.577Z,50
2018-07-25T08:52:51.446Z,49
2018-07-25T08:54:50.768Z,49
2018-07-25T08:56:50.266Z,49
2018-07-25T08:58:50.465Z,49
2018-07-25T09:00:50.684Z,49
2018-07-25T09:02:50.894Z,49
2018-07-25T09:04:50.583Z,49
2018-07-25T09:06:50.031Z,47
2018-07-25T09:08:50.206Z,46
2018-07-25T09:10:50.496Z,47
2018-07-25T09:12:51.841Z,47
2018-07-25T09:14:50.031Z,47
2018-07-25T09:16:51.099Z,47
2018-07-25T09:18:50.283Z,46
2018-07-25T09:20:50.457Z,45
2018-07-25T09:22:50.771Z,45
2018-07-25T09:24:49.979Z,45
2018-07-25T09:26:50.376Z,45
2018-07-25T09:28:50.810Z,45
2018-07-25T09:30:50.127Z,45
2018-07-25T09:32:53.225Z,45
2018-07-25T09:34:50.342Z,46
2018-07-25T09:36:50.904Z,45
2018-07-25T09:38:50.340Z,45
2018-07-25T09:40:51.111Z,45
2018-07-25T09:42:50.603Z,45
2018-07-25T09:44:51.097Z,43
2018-07-25T09:46:51.657Z,43
2018-07-25T09:48:51.012Z,44
2018-07-25T09:50:50.409Z,44
2018-07-25T09:52:51.001Z,44
2018-07-25T09:54:53.728Z,44
2018-07-25T09:56:50.850Z,44
2018-07-25T09:58:51.710Z,44
2018-07-25T10:00:50.558Z,44
2018-07-25T10:02:50.371Z,43
2018-07-25T10:04:50.237Z,44
2018-07-25T10:06:50.773Z,44
2018-07-25T10:08:50.070Z,44
2018-07-25T10:10:50.503Z,44
2018-07-25T10:12:50.805Z,44
2018-07-25T10:14:50.217Z,43
2018-07-25T10:16:52.371Z,44
2018-07-25T10:18:50.674Z,44
2018-07-25T10:20:52.191Z,44
2018-07-25T10:22:50.710Z,44
2018-07-25T10:24:53.375Z,43
2018-07-25T10:26:50.457Z,43
2018-07-25T10:28:50.944Z,43
2018-07-25T10:30:50.357Z,44
2018-07-25T10:32:51.248Z,43
2018-07-25T10:34:51.084Z,44
2018-07-25T10:36:50.555Z,44
2018-07-25T10:38:51.113Z,44
2018-07-25T10:40:50.495Z,42
2018-07-25T10:42:50.850Z,43
2018-07-25T10:44:50.178Z,43
2018-07-25T10:46:52.484Z,42
2018-07-25T10:48:51.465Z,42
2018-07-25T10:50:50.794Z,42
2018-07-25T10:52:50.983Z,42
2018-07-25T10:54:53.717Z,42
2018-07-25T10:56:50.778Z,42
2018-07-25T10:58:50.029Z,42
2018-07-25T11:00:50.338Z,42
2018-07-25T11:02:50.759Z,43
2018-07-25T11:04:50.668Z,42
2018-07-25T11:06:50.212Z,42
2018-07-25T11:08:50.520Z,42
2018-07-25T11:10:50.751Z,41
2018-07-25T11:12:50.317Z,42
2018-07-25T11:14:50.539Z,42
2018-07-25T11:16:50.029Z,42
2018-07-25T11:18:50.331Z,42
2018-07-25T11:20:50.609Z,41
2018-07-25T11:22:50.805Z,40
2018-07-25T11:24:50.142Z,41
2018-07-25T11:26:50.707Z,41
2018-07-25T11:28:49.981Z,40
2018-07-25T11:30:50.164Z,40
2018-07-25T11:32:51.249Z,40
2018-07-25T11:34:50.773Z,40
2018-07-25T11:36:50.360Z,41
2018-07-25T11:38:50.596Z,41
2018-07-25T11:40:50.804Z,41
2018-07-25T11:42:49.991Z,40
2018-07-25T11:44:50.267Z,40
2018-07-25T11:46:50.083Z,41
2018-07-25T11:48:50.250Z,41
2018-07-25T11:50:50.464Z,39
2018-07-25T11:52:50.727Z,39
2018-07-25T11:54:49.975Z,39
2018-07-25T11:56:50.425Z,39
2018-07-25T11:58:50.714Z,39
2018-07-25T12:00:50.232Z,39
2018-07-25T12:02:50.427Z,39
2018-07-25T12:04:50.014Z,39
2018-07-25T12:06:50.693Z,39
2018-07-25T12:08:50.250Z,39
2018-07-25T12:10:50.642Z,38
2018-07-25T12:12:51.105Z,39
2018-07-25T12:14:50.309Z,39
2018-07-25T12:16:50.839Z,39
2018-07-25T12:18:50.176Z,39
2018-07-25T12:20:50.623Z,39
2018-07-25T12:22:50.183Z,39
2018-07-25T12:24:50.672Z,39
2018-07-25T12:26:51.836Z,36
2018-07-25T12:28:50.328Z,37
2018-07-25T12:30:50.758Z,37
2018-07-25T12:32:50.178Z,37
2018-07-25T12:34:51.387Z,36
2018-07-25T12:36:51.874Z,37
2018-07-25T12:38:50.179Z,36
2018-07-25T12:40:50.578Z,36
2018-07-25T12:42:50.605Z,36
2018-07-25T12:44:50.975Z,36
2018-07-25T12:46:50.715Z,34
2018-07-25T12:48:52.906Z,35
2018-07-25T12:50:50.326Z,35
2018-07-25T12:52:50.613Z,35
2018-07-25T12:54:50.161Z,34
2018-07-25T12:56:50.838Z,34
2018-07-25T12:58:50.425Z,34
2018-07-25T13:00:50.962Z,34
2018-07-25T13:02:51.339Z,34
2018-07-25T13:04:50.158Z,34
2018-07-25T13:06:50.820Z,34
2018-07-25T13:08:50.275Z,34
2018-07-25T13:10:52.120Z,34
2018-07-25T13:12:50.474Z,34
2018-07-25T13:14:51.012Z,35
2018-07-25T13:16:50.690Z,34
2018-07-25T13:18:54.156Z,34
2018-07-25T13:20:51.035Z,34
2018-07-25T13:22:51.366Z,34
2018-07-25T13:24:50.697Z,34
2018-07-25T13:26:50.278Z,34
2018-07-25T13:28:51.519Z,34
2018-07-25T13:30:50.826Z,35
2018-07-25T13:32:50.213Z,34
2018-07-25T13:34:50.894Z,34
2018-07-25T13:36:50.641Z,34
2018-07-25T13:38:50.074Z,34
2018-07-25T13:40:53.035Z,35
2018-07-25T13:42:51.116Z,35
2018-07-25T13:44:50.704Z,34
2018-07-25T13:46:50.375Z,34
2018-07-25T13:48:53.466Z,34
2018-07-25T13:50:50.460Z,33
2018-07-25T13:52:50.759Z,32
2018-07-25T13:54:50.996Z,33
2018-07-25T13:56:50.609Z,33
2018-07-25T13:58:50.890Z,33
2018-07-25T14:00:50.233Z,34
2018-07-25T14:02:51.902Z,33
2018-07-25T14:04:50.579Z,33
2018-07-25T14:06:50.044Z,33
2018-07-25T14:08:50.494Z,33
2018-07-25T14:10:53.771Z,33
2018-07-25T14:12:50.799Z,33
2018-07-25T14:14:50.368Z,33
2018-07-25T14:16:50.898Z,33
2018-07-25T14:18:50.215Z,33
2018-07-25T14:20:50.690Z,33
2018-07-25T14:22:50.228Z,33
2018-07-25T14:24:50.541Z,33
2018-07-25T14:26:51.094Z,33
2018-07-25T14:28:51.365Z,33
2018-07-25T14:30:50.898Z,33
2018-07-25T14:32:53.407Z,32
2018-07-25T14:34:51.755Z,32
2018-07-25T14:36:50.526Z,31
2018-07-25T14:38:50.923Z,32
2018-07-25T14:40:50.253Z,32
2018-07-25T14:42:50.613Z,32
2018-07-25T14:44:51.116Z,32
2018-07-25T14:46:51.738Z,32
2018-07-25T14:48:50.092Z,32
2018-07-25T14:50:50.603Z,32
2018-07-25T14:52:51.010Z,32
2018-07-25T14:54:53.609Z,32
2018-07-25T14:56:50.975Z,32
2018-07-25T14:58:50.543Z,31
2018-07-25T15:00:50.814Z,31
2018-07-25T15:02:51.195Z,31
2018-07-25T15:04:50.076Z,32
2018-07-25T15:06:50.605Z,31
2018-07-25T15:08:50.718Z,32
2018-07-25T15:10:51.074Z,32
2018-07-25T15:12:50.502Z,32
2018-07-25T15:14:50.350Z,31
2018-07-25T15:16:54.281Z,32
2018-07-25T15:18:50.342Z,32
2018-07-25T15:20:50.665Z,32
2018-07-25T15:22:51.789Z,32
2018-07-25T15:24:50.205Z,32
2018-07-25T15:26:50.826Z,32
2018-07-25T15:28:50.117Z,32
2018-07-25T15:30:53.241Z,32
2018-07-25T15:32:50.290Z,32
2018-07-25T15:34:51.087Z,32
2018-07-25T15:36:50.806Z,32
2018-07-25T15:38:51.402Z,32
2018-07-25T15:40:50.900Z,32
2018-07-25T15:42:50.335Z,32
2018-07-25T15:44:53.775Z,32
2018-07-25T15:46:51.174Z,32
2018-07-25T15:48:50.661Z,33
2018-07-25T15:50:51.047Z,32
2018-07-25T15:52:51.135Z,32
2018-07-25T15:54:50.675Z,33
2018-07-25T15:56:50.393Z,32
2018-07-25T15:58:50.866Z,32
2018-07-25T16:00:50.240Z,32
2018-07-25T16:02:50.632Z,32
2018-07-25T16:04:50.405Z,32
2018-07-25T16:06:51.994Z,32
2018-07-25T16:08:50.492Z,32
2018-07-25T16:10:51.284Z,32
2018-07-25T16:12:50.745Z,32
2018-07-25T16:14:53.482Z,32
2018-07-25T16:16:50.495Z,32
2018-07-25T16:18:50.869Z,32
2018-07-25T16:20:50.465Z,32
2018-07-25T16:22:50.824Z,32
2018-07-25T16:24:50.169Z,32
2018-07-25T16:26:50.834Z,32
2018-07-25T16:28:50.317Z,32
2018-07-25T16:30:50.818Z,32
2018-07-25T16:32:50.290Z,32
2018-07-25T16:34:50.955Z,32
2018-07-25T16:36:52.948Z,32
2018-07-25T16:38:50.469Z,32
2018-07-25T16:40:50.846Z,32
2018-07-25T16:42:50.180Z,31
2018-07-25T16:44:50.536Z,31
2018-07-25T16:46:50.504Z,31
2018-07-25T16:48:50.955Z,32
2018-07-25T16:50:50.241Z,32
2018-07-25T16:52:50.711Z,31
2018-07-25T16:54:50.095Z,31
2018-07-25T16:56:51.444Z,31
2018-07-25T16:58:51.115Z,31
2018-07-25T17:00:50.623Z,31
2018-07-25T17:02:50.878Z,32
2018-07-25T17:04:50.760Z,31
2018-07-25T17:06:53.298Z,31
2018-07-25T17:08:50.980Z,31
2018-07-25T17:10:50.323Z,31
2018-07-25T17:12:50.659Z,31
2018-07-25T17:14:50.176Z,28.5
2018-07-25T17:16:50.757Z,28.9
2018-07-25T17:18:51.093Z,29.0
2018-07-25T17:20:50.587Z,29.5
2018-07-25T17:22:50.312Z,30.0
2018-07-25T17:24:50.748Z,31.2
2018-07-25T17:26:50.707Z,30.5
2018-07-25T17:28:53.542Z,31.0
2018-07-25T17:30:50.363Z,31.5
2018-07-25T17:32:50.797Z,31.1
2018-07-25T17:34:50.687Z,32.5
2018-07-25T17:36:50.557Z,31.6
2018-07-25T17:38:50.906Z,31.6
2018-07-25T17:40:50.847Z,31.7
2018-07-25T17:42:52.146Z,32.9
2018-07-25T17:44:50.486Z,32.6
2018-07-25T17:46:50.944Z,32.2
2018-07-25T17:48:50.382Z,32.4
2018-07-25T17:50:54.312Z,33.2
2018-07-25T17:52:51.437Z,32.6
2018-07-25T17:54:50.945Z,33.0
2018-07-25T17:56:51.166Z,33.1
2018-07-25T17:58:50.524Z,33.9
2018-07-25T18:00:51.050Z,33.2
2018-07-25T18:02:50.449Z,34.2
2018-07-25T18:04:52.313Z,34.7
2018-07-25T18:06:50.835Z,34.3
2018-07-25T18:08:50.143Z,33.8
2018-07-25T18:10:50.570Z,34.0
2018-07-25T18:12:54.199Z,35.0
2018-07-25T18:14:51.091Z,35.6
2018-07-25T18:16:50.683Z,35.1
2018-07-25T18:18:50.125Z,35.6
2018-07-25T18:20:50.532Z,35.7
2018-07-25T18:22:51.744Z,36.8
2018-07-25T18:24:50.278Z,35.9
2018-07-25T18:26:54.085Z,35.4
2018-07-25T18:28:51.036Z,36.0
2018-07-25T18:30:50.480Z,36.4
2018-07-25T18:32:51.087Z,36.7
2018-07-25T18:34:50.880Z,36.1
2018-07-25T18:36:50.676Z,36.6
2018-07-25T18:38:51.203Z,37.3
2018-07-25T18:40:53.803Z,37.0
2018-07-25T18:42:50.667Z,37.2
2018-07-25T18:44:50.194Z,37.7
2018-07-25T18:46:50.620Z,37.7
2018-07-25T18:48:50.164Z,38.8
2018-07-25T18:50:50.549Z,38.3
2018-07-25T18:52:50.881Z,38.8
2018-07-25T18:54:50.223Z,39.5
2018-07-25T18:56:50.602Z,39.0
2018-07-25T18:58:50.855Z,39.3
2018-07-25T19:00:50.089Z,39.5
2018-07-25T19:02:50.489Z,40.5
2018-07-25T19:04:50.081Z,40.5
2018-07-25T19:06:50.558Z,40.6
2018-07-25T19:08:50.925Z,40.9
2018-07-25T19:10:50.253Z,42.7
2018-07-25T19:12:50.436Z,42.9
2018-07-25T19:14:50.631Z,43.4
2018-07-25T19:16:50.681Z,44.0
2018-07-25T19:18:50.120Z,44.2
2018-07-25T19:20:50.326Z,45.1
2018-07-25T19:22:50.673Z,45.1
2018-07-25T19:24:50.903Z,46.2
2018-07-25T19:26:50.435Z,45.3
2018-07-25T19:28:50.658Z,45.8
2018-07-25T19:30:50.027Z,46.7
2018-07-25T19:32:50.300Z,47.6
2018-07-25T19:34:50.858Z,49.7
2018-07-25T19:36:50.491Z,48.3
2018-07-25T19:38:50.665Z,48.1
2018-07-25T19:40:50.775Z,47.8
2018-07-25T19:42:50.085Z,50.7
2018-07-25T19:44:50.325Z,51.0
2018-07-25T19:46:50.757Z,49.8
2018-07-25T19:48:50.038Z,50.3
2018-07-25T19:50:50.314Z,50.0
2018-07-25T19:52:50.574Z,49.2
2018-07-25T19:54:50.744Z,49.5
2018-07-25T19:56:50.241Z,51.6
2018-07-25T19:58:50.543Z,50.7
2018-07-25T20:00:51.212Z,49.4
2018-07-25T20:02:50.544Z,50.0
2018-07-25T20:04:50.377Z,50.9
2018-07-25T20:06:50.870Z,50.2
2018-07-25T20:08:50.304Z,50.8
2018-07-25T20:10:50.615Z,50.4
2018-07-25T20:12:50.901Z,50.9
2018-07-25T20:14:50.098Z,52.2
2018-07-25T20:16:51.530Z,51.8
2018-07-25T20:18:50.833Z,52.9
2018-07-25T20:20:50.015Z,53.0
2018-07-25T20:22:50.499Z,53.2
2018-07-25T20:24:50.778Z,53.3
2018-07-25T20:26:50.178Z,53.4
2018-07-25T20:28:50.398Z,52.6
2018-07-25T20:30:50.789Z,53.4
2018-07-25T20:32:50.155Z,52.8
2018-07-25T20:34:50.755Z,53.6
2018-07-25T20:36:50.189Z,54.9
2018-07-25T20:38:50.514Z,54.5
2018-07-25T20:40:50.726Z,55.0
2018-07-25T20:42:50.809Z,55.8
2018-07-25T20:44:50.204Z,55.9
2018-07-25T20:46:50.698Z,56.3
2018-07-25T20:48:49.993Z,56.3
2018-07-25T20:50:50.205Z,58.6
2018-07-25T20:52:50.543Z,58.1
2018-07-25T20:54:50.842Z,56.1
2018-07-25T20:56:50.187Z,56.2
2018-07-25T20:58:50.509Z,56.9
2018-07-25T21:00:51.366Z,55.8
2018-07-25T21:02:50.575Z,56.2
2018-07-25T21:04:50.273Z,56.6
2018-07-25T21:06:50.665Z,57.1
2018-07-25T21:08:50.865Z,57.1
2018-07-25T21:10:50.042Z,61.9
2018-07-25T21:12:50.506Z,59.8
2018-07-25T21:14:50.779Z,60.3
2018-07-25T21:16:49.932Z,59.8
2018-07-25T21:18:50.151Z,61.6
2018-07-25T21:20:50.411Z,61.6
2018-07-25T21:22:50.655Z,61.0
2018-07-25T21:24:49.985Z,63.5
2018-07-25T21:26:50.434Z,63.7
2018-07-25T21:28:50.600Z,62.0
2018-07-25T21:30:50.874Z,61.9
2018-07-25T21:32:50.331Z,62.4
2018-07-25T21:34:50.153Z,61.0
2018-07-25T21:36:50.464Z,60.9
2018-07-25T21:38:50.766Z,62.5
2018-07-25T21:40:50.005Z,61.8
2018-07-25T21:42:50.212Z,63.9
2018-07-25T21:44:50.524Z,63.4
2018-07-25T21:46:50.058Z,64.0
2018-07-25T21:48:50.226Z,63.3
2018-07-25T21:50:50.849Z,63.7
2018-07-25T21:52:50.246Z,63.4
2018-07-25T21:54:50.414Z,63.6
2018-07-25T21:56:50.872Z,64.3
2018-07-25T21:58:50.170Z,64.2
2018-07-25T22:00:50.703Z,64.9
2018-07-25T22:02:50.936Z,64.4
2018-07-25T22:04:50.676Z,65.6
2018-07-25T22:06:50.255Z,65.5
2018-07-25T22:08:50.727Z,65.8
2018-07-25T22:10:50.846Z,65.8
2018-07-25T22:12:50.150Z,67.8
2018-07-25T22:14:50.364Z,67.6
2018-07-25T22:16:50.717Z,67.4
2018-07-25T22:18:50.932Z,68.0
2018-07-25T22:20:50.366Z,68.1
2018-07-25T22:22:50.696Z,68.6
2018-07-25T22:24:50.865Z,67.8
2018-07-25T22:26:50.398Z,69.1
2018-07-25T22:28:50.653Z,69.2
2018-07-25T22:30:50.913Z,69.3
2018-07-25T22:32:50.199Z,69.4
2018-07-25T22:34:50.745Z,69.6
2018-07-25T22:36:50.102Z,70.4
2018-07-25T22:38:50.259Z,69.9
2018-07-25T22:40:50.602Z,70.3
2018-07-25T22:42:50.894Z,70.6
2018-07-25T22:44:50.103Z,70.7
2018-07-25T22:46:50.576Z,71.4
2018-07-25T22:48:50.859Z,71.5
2018-07-25T22:50:50.265Z,72.3
2018-07-25T22:52:50.471Z,73.0
2018-07-25T22:54:50.700Z,72.1
2018-07-25T22:56:50.253Z,72.2
2018-07-25T22:58:50.444Z,72.6
2018-07-25T23:00:50.742Z,72.6
2018-07-25T23:02:50.146Z,72.9
2018-07-25T23:04:50.689Z,72.6
2018-07-25T23:06:50.240Z,73.4
2018-07-25T23:08:50.435Z,73.0
2018-07-25T23:10:50.708Z,73.3
2018-07-25T23:12:50.013Z,74.3
2018-07-25T23:14:50.229Z,73.2
2018-07-25T23:16:50.692Z,73.4
2018-07-25T23:18:50.876Z,74.5
2018-07-25T23:20:50.074Z,75.0
2018-07-25T23:22:50.317Z,74.0
2018-07-25T23:24:50.543Z,74.7
2018-07-25T23:26:50.955Z,74.3
2018-07-25T23:28:50.172Z,74.2
2018-07-25T23:30:50.362Z,73.9
2018-07-25T23:32:50.583Z,73.2
2018-07-25T23:34:50.172Z,76.0
2018-07-25T23:36:50.607Z,75.4
2018-07-25T23:38:50.007Z,75.4
2018-07-25T23:40:50.186Z,74.1
2018-07-25T23:42:50.487Z,74.5
2018-07-25T23:44:50.653Z,74.1
2018-07-25T23:46:50.309Z,73.8
2018-07-25T23:48:50.634Z,75.0
2018-07-25T23:50:50.044Z,75.0
2018-07-25T23:52:50.175Z,75.0
2018-07-25T23:54:50.293Z,74.7
2018-07-25T23:56:50.754Z,74.8
2018-07-25T23:58:49.965Z,75.6
